Shoal Cove, Canada
Current Conditions -  °F | °C
As of 10:00 AM on Wednesday 22 Oct 2014 (Local Time) from CYBX Reporting Station
Few Clouds Few Clouds  
Wind Chill: 26°   Ceiling: Unl
Heat Index: 32°   Visibility: 15mi
Dew Point: 28°   Wind: 6mph
Humidity: 87%   Direction: 360°N
Pressure: 30.44"   Gusts: NA
Location:  51.02°N, 57.02°W
Report Text: CYBX 221200Z 36005KT 15SM FEW020 FEW200 00/M02 A3044 RMK SC1CI1TR SC SLP311
Loading
Personal Weather Stations






























Interactive Weather Map
Tropical Storm Tracking
New forecast layout! Learn more

10-Day Weather Forecast

Advertisements
Track Severe Weather on mobile